Time;durP1;ratioP1;P1;durP2;ratioP2;P2;SDS_P1;SDS_P2;PMS_P1;PMS_P2;Temp;Humidity;BMP_temperature;BMP_pressure;BME280_temperature;BME280_humidity;BME280_pressure;Samples;Min_cycle;Max_cycle;Signal;HPM_P1;HPM_P2
2023/12/05 00:02:24;;;;;;;50.55;47.47;;;8.30;99.90;;;;;;5012817;28;20034;-66
2023/12/05 00:04:51;;;;;;;49.22;46.10;;;8.20;99.90;;;;;;5013582;28;20463;-67
2023/12/05 00:07:19;;;;;;;50.90;47.85;;;8.20;99.90;;;;;;5012375;28;20045;-66
2023/12/05 00:09:45;;;;;;;51.53;47.72;;;8.20;99.90;;;;;;5014029;28;20077;-71
2023/12/05 00:12:11;;;;;;;45.45;42.33;;;8.20;99.90;;;;;;5028301;28;20037;-71
2023/12/05 00:14:37;;;;;;;43.33;40.28;;;8.20;99.90;;;;;;5013519;28;20042;-71
2023/12/05 00:17:03;;;;;;;50.58;47.15;;;8.10;99.90;;;;;;5012344;28;20034;-70
2023/12/05 00:19:29;;;;;;;53.17;49.58;;;8.10;99.90;;;;;;5012631;28;20384;-71
2023/12/05 00:21:56;;;;;;;61.60;57.45;;;8.10;99.90;;;;;;5011518;28;20494;-71
2023/12/05 00:24:22;;;;;;;53.08;49.47;;;8.00;99.90;;;;;;5013110;28;20030;-71
2023/12/05 00:26:48;;;;;;;57.30;53.47;;;8.00;99.90;;;;;;5012997;28;20034;-71
2023/12/05 00:29:14;;;;;;;62.17;58.20;;;8.00;99.90;;;;;;5013058;28;20053;-71
2023/12/05 00:31:40;;;;;;;49.85;46.92;;;7.90;99.90;;;;;;5027892;28;20034;-71
2023/12/05 00:34:06;;;;;;;70.22;65.70;;;7.90;99.90;;;;;;5012883;28;20030;-71
2023/12/05 00:36:32;;;;;;;68.65;64.45;;;7.90;99.90;;;;;;5012173;28;20029;-71
2023/12/05 00:38:58;;;;;;;55.67;51.92;;;7.90;99.90;;;;;;5013145;28;20064;-71
2023/12/05 00:41:27;;;;;;;73.10;68.85;;;7.80;99.90;;;;;;5012545;28;20041;-71
2023/12/05 00:43:53;;;;;;;59.42;55.28;;;7.80;99.90;;;;;;5027544;28;20038;-71
2023/12/05 00:46:21;;;;;;;46.13;42.97;;;7.80;99.90;;;;;;5011984;28;20041;-71
2023/12/05 00:48:47;;;;;;;54.58;50.70;;;7.80;99.90;;;;;;5012908;28;20034;-71
2023/12/05 00:51:13;;;;;;;50.78;47.20;;;7.70;99.90;;;;;;5010896;28;20045;-71
2023/12/05 00:53:39;;;;;;;35.67;32.88;;;7.70;99.90;;;;;;5027920;28;20498;-71
2023/12/05 00:56:11;;;;;;;29.70;27.33;;;7.60;99.90;;;;;;5012103;28;20026;-71
2023/12/05 00:58:37;;;;;;;33.83;31.40;;;7.70;99.90;;;;;;5027337;28;20072;-71
2023/12/05 01:01:03;;;;;;;33.50;31.23;;;7.70;99.90;;;;;;5011869;28;20045;-71
2023/12/05 01:03:30;;;;;;;27.60;25.40;;;7.60;99.90;;;;;;5012791;28;20041;-68
2023/12/05 01:05:56;;;;;;;27.75;25.63;;;7.60;99.90;;;;;;5011918;28;20386;-71
2023/12/05 01:08:22;;;;;;;27.95;25.65;;;7.60;99.90;;;;;;5012591;28;20041;-71
2023/12/05 01:10:48;;;;;;;33.97;31.45;;;7.60;99.90;;;;;;5012317;28;20046;-71
2023/12/05 01:13:14;;;;;;;28.33;26.42;;;7.60;99.90;;;;;;5013210;28;20042;-71
2023/12/05 01:15:40;;;;;;;27.60;25.40;;;7.60;99.90;;;;;;5026590;28;20049;-71
2023/12/05 01:18:06;;;;;;;26.85;24.85;;;7.50;99.90;;;;;;5011995;28;20038;-66
2023/12/05 01:20:33;;;;;;;29.63;27.45;;;7.50;99.90;;;;;;5012153;28;20042;-66
2023/12/05 01:22:59;;;;;;;26.95;24.77;;;7.50;99.90;;;;;;5027681;28;20467;-66
2023/12/05 01:25:25;;;;;;;28.13;26.13;;;7.50;99.90;;;;;;5011858;28;20046;-66
2023/12/05 01:27:51;;;;;;;25.83;23.92;;;7.50;99.90;;;;;;5012301;28;20030;-66
2023/12/05 01:30:17;;;;;;;31.10;28.45;;;7.50;99.90;;;;;;5011659;28;20037;-66
2023/12/05 01:32:43;;;;;;;48.03;45.17;;;7.40;99.90;;;;;;5016060;28;20460;-66
2023/12/05 01:35:10;;;;;;;35.22;32.90;;;7.40;99.90;;;;;;5015987;28;20034;-66
2023/12/05 01:37:37;;;;;;;28.23;25.98;;;7.40;99.90;;;;;;5016369;28;20363;-67
2023/12/05 01:40:05;;;;;;;28.23;25.98;;;7.40;99.90;;;;;;5016326;28;20049;-66
2023/12/05 01:42:38;;;;;;;27.60;25.45;;;7.40;99.90;;;;;;5016497;28;20034;-66
2023/12/05 01:45:05;;;;;;;27.63;25.27;;;7.40;99.90;;;;;;5016176;28;20467;-66
2023/12/05 01:47:33;;;;;;;33.10;30.73;;;7.40;99.90;;;;;;5050650;28;20048;-67
2023/12/05 01:49:59;;;;;;;26.92;24.92;;;7.40;99.90;;;;;;5034504;28;20501;-67
2023/12/05 01:52:26;;;;;;;28.15;25.98;;;7.40;99.90;;;;;;5035477;28;20029;-67
2023/12/05 01:54:52;;;;;;;31.25;28.10;;;7.40;99.90;;;;;;5051147;28;20470;-67
2023/12/05 01:57:19;;;;;;;31.02;28.88;;;7.40;99.90;;;;;;5035285;28;20025;-67
2023/12/05 01:59:45;;;;;;;36.95;34.58;;;7.40;99.90;;;;;;5035803;28;20044;-67
2023/12/05 02:02:12;;;;;;;41.33;38.38;;;7.40;99.90;;;;;;5017014;28;20045;-67
2023/12/05 02:04:38;;;;;;;28.27;25.85;;;7.40;99.90;;;;;;5031019;28;20534;-67
2023/12/05 02:07:04;;;;;;;34.47;32.20;;;7.40;99.90;;;;;;5015446;28;20041;-66
2023/12/05 02:09:31;;;;;;;27.80;25.67;;;7.40;99.90;;;;;;5031126;28;20136;-67
2023/12/05 02:11:57;;;;;;;27.27;25.13;;;7.40;99.90;;;;;;5015556;28;20034;-67
2023/12/05 02:14:24;;;;;;;27.75;25.83;;;7.40;99.90;;;;;;5015823;28;20037;-67
2023/12/05 02:16:50;;;;;;;27.52;25.02;;;7.40;99.90;;;;;;5014372;28;20691;-66
2023/12/05 02:19:40;;;;;;;34.08;31.67;;;7.40;99.90;;;;;;5015596;28;20495;-67
2023/12/05 02:22:35;;;;;;;36.23;33.73;;;7.30;99.90;;;;;;5024847;28;20030;-67
2023/12/05 02:25:01;;;;;;;27.77;25.80;;;7.30;99.90;;;;;;5014124;28;20038;-70
2023/12/05 02:27:34;;;;;;;31.67;29.42;;;7.30;99.90;;;;;;5015037;28;20041;-71
2023/12/05 02:30:00;;;;;;;28.02;25.67;;;7.30;99.90;;;;;;5030493;28;20042;-71
2023/12/05 02:32:26;;;;;;;28.83;26.50;;;7.20;99.90;;;;;;5014202;28;20475;-71
2023/12/05 02:34:52;;;;;;;33.77;31.53;;;7.20;99.90;;;;;;5030509;28;20038;-71
2023/12/05 02:37:57;;;;;;;37.00;34.75;;;7.20;99.90;;;;;;5015002;28;20041;-71
2023/12/05 02:40:34;;;;;;;39.67;36.85;;;7.20;99.90;;;;;;5010718;28;20630;-70
2023/12/05 02:43:06;;;;;;;28.73;26.80;;;7.20;99.90;;;;;;5013424;28;20063;-71
2023/12/05 02:45:33;;;;;;;27.13;24.92;;;7.20;99.90;;;;;;5033422;28;20025;-71
2023/12/05 02:47:59;;;;;;;33.95;31.60;;;7.20;99.90;;;;;;5034892;28;20038;-71
2023/12/05 02:50:25;;;;;;;27.05;25.23;;;7.20;99.90;;;;;;5049359;28;20246;-71
2023/12/05 02:52:51;;;;;;;26.63;24.52;;;7.20;99.90;;;;;;5050011;28;20052;-71
2023/12/05 02:55:17;;;;;;;43.92;41.65;;;7.20;99.90;;;;;;5032936;28;20394;-71
2023/12/05 02:57:44;;;;;;;27.83;25.75;;;7.20;99.90;;;;;;5034600;28;20034;-71
2023/12/05 03:00:12;;;;;;;26.58;24.70;;;7.10;99.90;;;;;;5047298;28;20030;-71
2023/12/05 03:02:38;;;;;;;28.90;26.17;;;7.10;99.90;;;;;;5013735;28;20466;-71
2023/12/05 03:05:04;;;;;;;30.67;28.48;;;7.10;99.90;;;;;;5014632;28;20030;-71
2023/12/05 03:07:31;;;;;;;30.08;27.92;;;7.10;99.90;;;;;;5013287;28;20482;-71
2023/12/05 03:09:57;;;;;;;30.60;28.10;;;7.10;99.90;;;;;;5014359;28;20040;-71
2023/12/05 03:12:23;;;;;;;29.23;26.98;;;7.10;99.90;;;;;;5013758;28;20053;-71
2023/12/05 03:14:49;;;;;;;35.25;32.58;;;7.10;99.90;;;;;;5014294;28;20036;-71
2023/12/05 03:17:15;;;;;;;28.35;25.85;;;7.10;99.90;;;;;;5013676;28;20505;-71
2023/12/05 03:19:41;;;;;;;30.50;28.08;;;7.10;99.90;;;;;;5014266;28;20045;-71
2023/12/05 03:22:07;;;;;;;33.05;30.38;;;7.10;99.90;;;;;;5029372;28;20025;-71
2023/12/05 03:24:33;;;;;;;29.77;27.48;;;7.10;99.90;;;;;;5014239;28;20033;-71
2023/12/05 03:26:59;;;;;;;31.05;29.02;;;7.10;99.90;;;;;;5013028;28;20042;-71
2023/12/05 03:32:01;;;;;;;29.53;26.80;;;7.10;99.90;;;;;;5201437;22;20270;-65
2023/12/05 03:34:27;;;;;;;30.77;28.67;;;7.10;99.90;;;;;;5010292;28;20038;-66
2023/12/05 03:36:53;;;;;;;28.83;26.80;;;7.10;99.90;;;;;;5013725;28;20041;-66
2023/12/05 03:39:20;;;;;;;28.63;26.42;;;7.10;99.90;;;;;;5014389;28;20033;-66
2023/12/05 03:41:47;;;;;;;30.17;28.17;;;7.10;99.90;;;;;;5013851;28;20030;-66
2023/12/05 03:44:13;;;;;;;30.88;28.73;;;7.10;99.90;;;;;;5013259;28;20030;-66
2023/12/05 03:46:39;;;;;;;30.60;28.23;;;7.10;99.90;;;;;;5026872;28;20040;-66
2023/12/05 03:49:05;;;;;;;30.98;28.85;;;7.10;99.90;;;;;;5034062;28;20049;-66
2023/12/05 03:51:31;;;;;;;30.57;28.53;;;7.10;99.90;;;;;;5033554;28;20033;-66
2023/12/05 03:53:57;;;;;;;32.20;29.98;;;7.00;99.90;;;;;;5033001;28;20037;-66
2023/12/05 03:56:23;;;;;;;33.15;30.85;;;7.00;99.90;;;;;;5033438;28;20359;-66
2023/12/05 03:58:51;;;;;;;33.97;31.38;;;7.00;99.90;;;;;;5033987;28;20048;-66
2023/12/05 04:01:17;;;;;;;36.78;34.22;;;7.00;99.90;;;;;;5032979;28;20037;-66
2023/12/05 04:03:43;;;;;;;26.08;24.40;;;7.00;99.90;;;;;;5033334;28;20033;-66
2023/12/05 04:06:18;;;;;;;23.08;21.38;;;7.00;99.90;;;;;;5033397;28;20033;-66
2023/12/05 04:08:44;;;;;;;22.60;20.90;;;7.00;99.90;;;;;;5012742;28;20038;-66
2023/12/05 04:11:10;;;;;;;22.80;21.02;;;7.00;99.90;;;;;;5021823;28;20029;-66
2023/12/05 04:13:36;;;;;;;22.38;20.63;;;7.00;99.90;;;;;;5033483;28;20037;-66
2023/12/05 04:16:03;;;;;;;33.60;31.60;;;7.00;99.90;;;;;;5032321;28;20034;-66
2023/12/05 04:18:29;;;;;;;22.42;20.83;;;7.00;99.90;;;;;;5033230;28;20041;-66
2023/12/05 04:20:55;;;;;;;22.40;20.65;;;7.00;99.90;;;;;;5033032;28;20048;-66
2023/12/05 04:23:22;;;;;;;26.73;24.83;;;7.00;99.90;;;;;;5033597;28;20037;-69
2023/12/05 04:25:48;;;;;;;20.63;19.07;;;7.00;99.90;;;;;;5032931;28;20029;-66
2023/12/05 04:28:14;;;;;;;21.65;19.42;;;7.00;99.90;;;;;;5033251;28;20052;-66
2023/12/05 04:30:40;;;;;;;21.67;19.97;;;6.90;99.90;;;;;;5032127;28;20052;-66
2023/12/05 04:33:06;;;;;;;22.13;20.27;;;6.90;99.90;;;;;;5032829;28;20053;-66
2023/12/05 04:35:32;;;;;;;21.92;20.33;;;6.90;99.90;;;;;;5032853;28;20041;-66
2023/12/05 04:37:58;;;;;;;20.53;18.93;;;6.90;99.90;;;;;;5033230;28;20033;-66
2023/12/05 04:40:24;;;;;;;20.57;19.07;;;6.90;99.90;;;;;;5029210;28;20030;-66
2023/12/05 04:42:51;;;;;;;21.57;20.07;;;6.90;99.90;;;;;;5028729;28;20033;-66
2023/12/05 04:45:17;;;;;;;21.60;19.80;;;6.90;99.90;;;;;;5031647;28;20045;-66
2023/12/05 04:47:43;;;;;;;27.23;25.30;;;6.80;99.90;;;;;;5032802;28;20378;-66
2023/12/05 04:50:09;;;;;;;24.83;23.13;;;6.80;99.90;;;;;;5032124;28;20053;-66
2023/12/05 04:52:35;;;;;;;37.15;34.78;;;6.80;99.90;;;;;;5032731;28;20421;-66
2023/12/05 04:55:02;;;;;;;30.67;28.65;;;6.80;99.90;;;;;;5032914;28;20041;-66
2023/12/05 04:57:28;;;;;;;47.17;44.07;;;6.80;99.90;;;;;;5031991;28;20052;-66
2023/12/05 04:59:54;;;;;;;39.20;36.90;;;6.80;99.90;;;;;;5032336;28;20379;-66
2023/12/05 05:02:20;;;;;;;35.53;33.33;;;6.80;99.90;;;;;;5031703;28;20033;-66
2023/12/05 05:04:46;;;;;;;38.50;35.93;;;6.70;99.90;;;;;;5032562;28;20045;-66
2023/12/05 05:07:12;;;;;;;40.30;37.73;;;6.70;99.90;;;;;;5026962;28;20050;-66
2023/12/05 05:09:40;;;;;;;36.15;33.95;;;6.80;99.90;;;;;;5028386;28;20375;-66
2023/12/05 05:12:10;;;;;;;38.92;36.42;;;6.70;99.90;;;;;;5032134;28;20046;-66
2023/12/05 05:14:36;;;;;;;37.40;34.97;;;6.70;99.90;;;;;;5031065;28;20382;-69
2023/12/05 05:17:04;;;;;;;38.10;35.77;;;6.70;99.90;;;;;;5031846;28;20041;-68
2023/12/05 05:19:33;;;;;;;37.25;34.33;;;6.70;99.90;;;;;;5032458;28;20381;-69
2023/12/05 05:21:59;;;;;;;36.50;34.07;;;6.70;99.90;;;;;;5032309;28;20036;-69
2023/12/05 05:24:25;;;;;;;36.13;33.57;;;6.70;99.90;;;;;;5032382;28;20046;-69
2023/12/05 05:26:52;;;;;;;36.40;33.40;;;6.70;99.90;;;;;;5032413;28;20033;-69
2023/12/05 05:29:18;;;;;;;46.47;43.83;;;6.70;99.90;;;;;;5032167;28;20426;-69
2023/12/05 05:31:44;;;;;;;31.50;29.63;;;6.70;99.90;;;;;;5031771;28;20397;-69
2023/12/05 05:34:10;;;;;;;33.83;31.10;;;6.70;99.90;;;;;;5032322;28;20050;-68
2023/12/05 05:36:36;;;;;;;27.10;25.17;;;6.60;99.90;;;;;;5032189;28;20425;-68
2023/12/05 05:39:02;;;;;;;27.77;25.63;;;6.60;99.90;;;;;;5032355;28;20033;-68
2023/12/05 05:41:28;;;;;;;31.43;29.43;;;6.70;99.90;;;;;;5021470;28;20050;-68
2023/12/05 05:43:54;;;;;;;32.23;29.90;;;6.70;99.90;;;;;;5012256;28;20041;-68
2023/12/05 05:46:20;;;;;;;41.70;27.43;;;6.60;99.90;;;;;;5012105;28;20065;-68
2023/12/05 05:48:46;;;;;;;26.37;23.83;;;6.70;99.90;;;;;;5012770;28;20030;-68
2023/12/05 05:51:12;;;;;;;28.33;26.27;;;6.60;99.90;;;;;;5012528;28;20466;-69
2023/12/05 05:53:38;;;;;;;99.80;32.03;;;6.60;99.90;;;;;;5012631;28;20052;-68
2023/12/05 05:56:05;;;;;;;27.40;25.50;;;6.70;99.90;;;;;;5012350;28;20469;-68
2023/12/05 05:58:31;;;;;;;25.33;23.45;;;6.60;99.90;;;;;;5012231;28;20478;-68
2023/12/05 06:00:57;;;;;;;27.70;25.63;;;6.60;99.90;;;;;;5012057;28;20034;-69
2023/12/05 06:03:26;;;;;;;25.23;23.37;;;6.60;99.90;;;;;;5012610;28;20040;-69
2023/12/05 06:05:52;;;;;;;34.33;31.63;;;6.60;99.90;;;;;;5012147;28;20056;-69
2023/12/05 06:08:18;;;;;;;26.73;24.83;;;6.60;99.90;;;;;;5012464;28;20030;-69
2023/12/05 06:10:44;;;;;;;31.95;29.70;;;6.60;99.90;;;;;;5012114;28;20061;-69
2023/12/05 06:13:10;;;;;;;29.27;25.55;;;6.60;99.90;;;;;;5011935;28;20034;-69
2023/12/05 06:15:36;;;;;;;33.10;30.70;;;6.60;99.90;;;;;;5011732;28;20042;-68
2023/12/05 06:18:03;;;;;;;48.90;29.83;;;6.70;99.90;;;;;;5015046;28;20038;-68
2023/12/05 06:20:29;;;;;;;29.33;27.37;;;6.60;99.90;;;;;;5015742;28;20113;-69
2023/12/05 06:22:55;;;;;;;46.77;26.53;;;6.60;99.90;;;;;;5015766;28;20026;-69
2023/12/05 06:25:21;;;;;;;19.17;17.88;;;6.60;99.90;;;;;;5015570;28;20049;-69
2023/12/05 06:27:48;;;;;;;29.30;26.85;;;6.60;99.90;;;;;;5015551;28;20387;-68
2023/12/05 06:30:14;;;;;;;27.70;25.50;;;6.60;99.90;;;;;;5014985;28;20070;-67
2023/12/05 06:32:40;;;;;;;30.43;28.20;;;6.50;99.90;;;;;;5015485;28;20046;-68
2023/12/05 06:35:06;;;;;;;29.87;27.70;;;6.50;99.90;;;;;;5030499;28;20037;-68
2023/12/05 06:37:32;;;;;;;24.70;21.77;;;6.50;99.90;;;;;;5035152;28;20469;-67
2023/12/05 06:39:58;;;;;;;26.53;22.83;;;6.60;99.90;;;;;;5035360;28;20029;-68
2023/12/05 06:42:25;;;;;;;23.27;21.07;;;6.50;99.90;;;;;;5014796;28;20049;-68
2023/12/05 06:44:51;;;;;;;18.97;17.13;;;6.50;99.90;;;;;;5019453;28;20397;-68
2023/12/05 06:47:18;;;;;;;25.13;22.83;;;6.50;99.90;;;;;;5030478;28;20049;-68
2023/12/05 06:49:44;;;;;;;19.73;18.13;;;6.50;99.90;;;;;;5033886;28;20037;-68
2023/12/05 06:52:11;;;;;;;20.53;18.83;;;6.50;99.90;;;;;;5031537;28;20033;-68
2023/12/05 06:54:38;;;;;;;21.70;19.70;;;6.50;99.90;;;;;;5034320;28;20041;-68
2023/12/05 06:57:04;;;;;;;27.73;21.83;;;6.40;99.90;;;;;;5033708;28;20398;-68
2023/12/05 06:59:30;;;;;;;23.63;21.43;;;6.40;99.90;;;;;;5034884;28;20482;-68
2023/12/05 07:01:56;;;;;;;21.67;19.67;;;6.40;99.90;;;;;;5033987;28;20046;-68
2023/12/05 07:04:22;;;;;;;30.33;27.73;;;6.40;99.90;;;;;;5034420;28;20149;-68
2023/12/05 07:06:49;;;;;;;25.60;23.60;;;6.50;99.90;;;;;;5034081;28;20034;-68
2023/12/05 07:09:15;;;;;;;20.27;18.40;;;6.50;99.90;;;;;;5034650;28;20030;-68
2023/12/05 07:11:41;;;;;;;30.00;27.73;;;6.50;99.90;;;;;;5033936;28;20393;-68
2023/12/05 07:14:08;;;;;;;34.20;31.47;;;6.60;99.90;;;;;;5034469;28;20031;-68
2023/12/05 07:16:36;;;;;;;35.83;32.93;;;6.60;99.90;;;;;;5026564;28;20038;-68
2023/12/05 07:19:02;;;;;;;20.05;18.67;;;6.60;99.90;;;;;;5014702;28;20041;-67
2023/12/05 07:21:28;;;;;;;30.57;28.17;;;6.50;99.90;;;;;;5029123;28;20033;-68
2023/12/05 07:23:55;;;;;;;27.90;26.00;;;6.60;99.90;;;;;;5034423;28;20378;-68
2023/12/05 07:26:21;;;;;;;29.67;27.70;;;6.50;99.90;;;;;;5033682;28;20042;-68
2023/12/05 07:28:47;;;;;;;30.27;28.13;;;6.50;99.90;;;;;;5033733;28;20040;-68
2023/12/05 07:31:13;;;;;;;28.60;26.20;;;6.50;99.90;;;;;;5033311;28;20546;-68
2023/12/05 07:33:39;;;;;;;26.90;25.10;;;6.50;99.90;;;;;;5033903;28;20033;-68
2023/12/05 07:36:05;;;;;;;29.70;27.70;;;6.50;99.90;;;;;;5032510;28;20040;-68
2023/12/05 07:38:32;;;;;;;33.87;31.20;;;6.50;99.90;;;;;;5034115;28;20504;-68
2023/12/05 07:40:58;;;;;;;22.90;21.23;;;6.50;99.90;;;;;;5033386;28;20048;-68
2023/12/05 07:43:24;;;;;;;34.27;31.70;;;6.40;99.90;;;;;;5034067;28;20040;-68
2023/12/05 07:45:50;;;;;;;25.70;23.50;;;6.40;99.90;;;;;;5032706;28;20037;-68
2023/12/05 07:48:16;;;;;;;25.70;23.53;;;6.50;99.90;;;;;;5033967;28;20040;-68
2023/12/05 07:50:43;;;;;;;24.57;22.70;;;6.50;99.90;;;;;;5033832;28;20470;-68
2023/12/05 07:53:09;;;;;;;28.33;25.93;;;6.40;99.90;;;;;;5033262;28;20046;-68
2023/12/05 07:55:35;;;;;;;34.23;31.73;;;6.40;99.90;;;;;;5015107;28;20038;-68
2023/12/05 07:58:02;;;;;;;31.23;28.97;;;6.50;99.90;;;;;;5014086;28;20378;-68
2023/12/05 08:00:28;;;;;;;25.65;23.48;;;6.50;99.90;;;;;;5018219;28;20038;-68
2023/12/05 08:02:54;;;;;;;21.88;20.08;;;6.40;99.90;;;;;;5026783;28;20033;-69
2023/12/05 08:05:20;;;;;;;25.33;23.20;;;6.50;99.90;;;;;;5033521;28;20394;-68
2023/12/05 08:07:46;;;;;;;24.20;21.52;;;6.50;99.90;;;;;;5033191;28;20029;-68
2023/12/05 08:10:12;;;;;;;27.30;25.33;;;6.50;99.90;;;;;;5033181;28;20041;-68
2023/12/05 08:12:38;;;;;;;26.70;24.37;;;6.50;99.90;;;;;;5023556;28;20029;-67
2023/12/05 08:15:05;;;;;;;32.72;29.88;;;6.50;99.90;;;;;;5027425;28;20510;-69
2023/12/05 08:17:31;;;;;;;48.87;45.17;;;6.60;99.90;;;;;;5013843;28;20026;-69
2023/12/05 08:19:57;;;;;;;30.75;28.05;;;6.70;99.90;;;;;;5025846;28;20462;-69
2023/12/05 08:22:25;;;;;;;39.00;35.70;;;6.90;99.90;;;;;;5032415;28;20036;-72
2023/12/05 08:24:52;;;;;;;34.58;31.63;;;6.90;99.90;;;;;;5033328;28;20041;-70
2023/12/05 08:27:18;;;;;;;29.15;26.77;;;7.00;99.90;;;;;;5032808;28;20033;-70
2023/12/05 08:29:44;;;;;;;32.92;30.55;;;7.10;99.90;;;;;;5033036;28;20398;-71
2023/12/05 08:32:11;;;;;;;43.10;40.08;;;7.10;99.90;;;;;;5019566;28;20037;-72
2023/12/05 08:34:37;;;;;;;28.52;25.80;;;7.20;99.90;;;;;;5025564;28;20068;-71
2023/12/05 08:37:04;;;;;;;32.53;30.33;;;7.10;99.90;;;;;;5032328;28;20160;-73
2023/12/05 08:39:31;;;;;;;26.98;24.95;;;7.20;99.90;;;;;;5032610;28;20029;-71
2023/12/05 08:41:59;;;;;;;23.40;21.35;;;7.20;99.90;;;;;;5028388;28;20398;-72
2023/12/05 08:44:26;;;;;;;27.17;24.95;;;7.20;99.90;;;;;;5031804;28;20416;-72
2023/12/05 08:46:52;;;;;;;27.15;24.75;;;7.20;99.90;;;;;;5032290;28;20041;-72
2023/12/05 08:49:18;;;;;;;24.60;22.35;;;7.20;99.90;;;;;;5032785;28;20036;-71
2023/12/05 08:51:44;;;;;;;22.73;20.70;;;7.20;99.90;;;;;;5030940;28;20167;-71
2023/12/05 08:54:10;;;;;;;25.13;23.13;;;7.20;99.90;;;;;;5013252;28;20406;-71
2023/12/05 08:56:36;;;;;;;28.38;26.25;;;7.20;99.90;;;;;;5023930;28;20045;-69
2023/12/05 08:59:02;;;;;;;32.92;30.65;;;7.20;99.90;;;;;;5028706;28;20026;-66
2023/12/05 09:01:28;;;;;;;28.65;26.52;;;7.20;99.90;;;;;;5027679;28;20047;-69
2023/12/05 09:03:54;;;;;;;21.77;20.02;;;7.20;99.90;;;;;;5030275;28;20049;-69
2023/12/05 09:06:20;;;;;;;23.20;21.35;;;7.20;99.90;;;;;;5026747;28;20068;-69
2023/12/05 09:08:46;;;;;;;23.10;21.25;;;7.10;99.90;;;;;;5032736;28;20021;-69
2023/12/05 09:11:13;;;;;;;25.38;22.90;;;7.10;99.90;;;;;;5022068;28;20068;-70
2023/12/05 09:13:39;;;;;;;27.42;25.48;;;7.20;99.90;;;;;;5031131;28;20029;-69
2023/12/05 09:16:05;;;;;;;25.58;23.63;;;7.10;99.90;;;;;;5030798;28;20037;-69
2023/12/05 09:18:31;;;;;;;29.20;26.98;;;7.20;99.90;;;;;;5032508;28;20030;-69
2023/12/05 09:20:57;;;;;;;31.63;29.23;;;7.20;99.90;;;;;;5031809;28;20037;-69
2023/12/05 09:23:24;;;;;;;31.63;29.33;;;7.20;99.90;;;;;;5032809;28;20476;-70
2023/12/05 09:25:50;;;;;;;35.40;32.72;;;7.30;99.90;;;;;;5027535;28;20033;-69
2023/12/05 09:28:16;;;;;;;33.40;30.88;;;7.30;99.90;;;;;;5030870;28;20084;-69
2023/12/05 09:30:42;;;;;;;31.90;29.52;;;7.30;99.90;;;;;;5029562;28;20053;-69
2023/12/05 09:33:08;;;;;;;31.60;29.15;;;7.40;99.90;;;;;;5029379;28;20391;-69
2023/12/05 09:35:34;;;;;;;28.98;27.00;;;7.40;99.90;;;;;;5030286;28;20048;-69
2023/12/05 09:38:00;;;;;;;29.50;27.23;;;7.50;99.90;;;;;;5031539;28;20044;-69
2023/12/05 09:40:27;;;;;;;26.80;24.55;;;7.50;99.90;;;;;;5029019;28;20460;-69
2023/12/05 09:42:53;;;;;;;26.17;23.85;;;7.50;99.90;;;;;;5026391;28;20116;-68
2023/12/05 09:45:20;;;;;;;29.33;27.10;;;7.60;99.90;;;;;;5012847;28;20064;-69
2023/12/05 09:47:47;;;;;;;32.70;30.20;;;7.70;99.90;;;;;;5031599;28;20038;-69
2023/12/05 09:50:13;;;;;;;30.20;28.15;;;7.70;99.90;;;;;;5023925;28;20054;-68
2023/12/05 09:52:39;;;;;;;34.10;32.00;;;7.80;99.90;;;;;;5032307;28;20037;-69
2023/12/05 09:55:06;;;;;;;36.10;33.15;;;7.80;99.90;;;;;;5033249;28;20041;-69
2023/12/05 09:57:32;;;;;;;36.15;33.75;;;7.90;99.90;;;;;;5034559;28;20022;-69
2023/12/05 09:59:58;;;;;;;47.90;44.95;;;8.00;99.90;;;;;;5033108;28;20037;-69
2023/12/05 10:02:24;;;;;;;56.63;52.83;;;8.00;99.90;;;;;;5030882;28;20030;-69
2023/12/05 10:04:54;;;;;;;49.13;46.03;;;8.10;99.90;;;;;;5031404;28;20045;-69
2023/12/05 10:07:20;;;;;;;44.35;41.30;;;8.20;99.90;;;;;;5000737;28;20466;-69
2023/12/05 10:09:47;;;;;;;34.33;32.25;;;8.20;99.90;;;;;;5014840;28;20052;-69
2023/12/05 10:12:14;;;;;;;37.38;35.00;;;8.30;99.90;;;;;;5016633;28;20029;-69
2023/12/05 10:14:40;;;;;;;40.55;38.22;;;8.40;99.90;;;;;;5034494;28;20052;-69
2023/12/05 10:17:07;;;;;;;52.25;48.97;;;8.40;99.90;;;;;;5032544;28;20033;-69
2023/12/05 10:19:33;;;;;;;45.95;42.88;;;8.50;99.90;;;;;;5034047;28;20033;-69
2023/12/05 10:22:00;;;;;;;39.38;36.58;;;8.60;99.90;;;;;;5034261;28;20044;-69
2023/12/05 10:24:47;;;;;;;33.72;31.48;;;8.70;99.90;;;;;;5020797;28;20056;-69
2023/12/05 10:27:13;;;;;;;56.92;53.60;;;8.90;99.90;;;;;;5016288;28;20086;-69
2023/12/05 10:29:42;;;;;;;42.50;39.75;;;8.90;99.90;;;;;;5029866;28;20060;-69
2023/12/05 10:32:10;;;;;;;35.10;32.63;;;8.90;99.90;;;;;;5032760;28;20509;-69
2023/12/05 10:34:56;;;;;;;37.35;34.85;;;8.90;99.90;;;;;;5033912;28;20033;-70
2023/12/05 10:37:26;;;;;;;36.20;33.75;;;8.90;99.90;;;;;;5033733;28;20052;-69
2023/12/05 10:39:53;;;;;;;57.42;54.08;;;9.00;99.90;;;;;;5033425;28;20045;-70
2023/12/05 10:42:19;;;;;;;45.65;42.88;;;9.10;99.90;;;;;;5016631;28;20040;-69
2023/12/05 10:44:46;;;;;;;65.78;62.20;;;9.00;99.90;;;;;;5029985;28;20072;-69
2023/12/05 10:47:12;;;;;;;68.45;64.43;;;9.20;99.90;;;;;;5032785;28;20041;-69
2023/12/05 10:49:42;;;;;;;77.20;73.10;;;9.20;99.90;;;;;;5033940;28;20028;-69
2023/12/05 10:52:09;;;;;;;78.68;74.28;;;9.20;99.90;;;;;;5028129;28;20045;-69
2023/12/05 10:54:35;;;;;;;112.90;106.65;;;9.30;99.90;;;;;;5026805;28;20494;-69
2023/12/05 10:57:01;;;;;;;96.22;90.85;;;9.30;99.90;;;;;;5032534;28;20032;-69
2023/12/05 10:59:28;;;;;;;88.85;83.78;;;9.30;99.90;;;;;;5034426;28;20037;-69
2023/12/05 11:01:55;;;;;;;92.63;87.68;;;9.40;99.90;;;;;;5031484;28;20037;-69
2023/12/05 11:04:25;;;;;;;91.43;86.13;;;9.40;99.90;;;;;;5025699;28;20101;-69
2023/12/05 11:06:52;;;;;;;115.60;109.30;;;9.50;99.90;;;;;;5032387;28;20137;-69
2023/12/05 11:09:18;;;;;;;109.47;103.40;;;9.60;99.90;;;;;;5033087;28;20033;-69
2023/12/05 11:11:46;;;;;;;99.38;94.18;;;9.60;99.90;;;;;;5025396;28;20375;-69
2023/12/05 11:14:12;;;;;;;123.30;116.75;;;9.80;99.90;;;;;;5023911;28;20037;-69
2023/12/05 11:16:39;;;;;;;138.13;131.02;;;9.70;99.90;;;;;;5030573;28;20029;-70
2023/12/05 11:19:09;;;;;;;179.43;170.15;;;9.80;99.90;;;;;;5031871;28;20034;-69
2023/12/05 11:21:43;;;;;;;117.63;111.35;;;9.80;99.90;;;;;;5032948;28;20417;-69
2023/12/05 11:24:36;;;;;;;91.15;85.95;;;9.90;99.90;;;;;;5031719;28;20053;-69
2023/12/05 11:27:21;;;;;;;79.57;75.10;;;9.90;99.90;;;;;;5027712;28;20508;-69
2023/12/05 11:30:03;;;;;;;85.47;80.85;;;10.00;99.90;;;;;;5016437;28;20025;-69
2023/12/05 11:32:41;;;;;;;67.15;63.22;;;10.20;99.90;;;;;;5031139;28;20057;-69
2023/12/05 11:35:12;;;;;;;65.68;61.97;;;10.30;99.90;;;;;;5031492;28;20046;-70
2023/12/05 11:37:48;;;;;;;59.10;55.67;;;10.40;99.90;;;;;;5013326;28;20034;-69
2023/12/05 11:40:14;;;;;;;112.53;106.70;;;10.50;99.90;;;;;;5026970;28;20553;-70
2023/12/05 11:43:06;;;;;;;75.90;71.30;;;10.60;99.90;;;;;;5027577;28;20030;-69
2023/12/05 11:45:34;;;;;;;154.75;146.90;;;10.70;99.90;;;;;;5028941;28;20033;-70
2023/12/05 11:48:01;;;;;;;156.20;147.68;;;10.70;99.90;;;;;;5029524;28;20037;-69
2023/12/05 11:50:45;;;;;;;149.65;141.68;;;10.70;99.90;;;;;;5022290;28;20034;-70
2023/12/05 11:53:12;;;;;;;160.93;152.50;;;10.60;99.90;;;;;;5027957;28;20029;-70
2023/12/05 11:55:45;;;;;;;180.48;170.70;;;10.80;99.90;;;;;;5027100;28;20037;-70
2023/12/05 11:58:31;;;;;;;181.75;172.30;;;10.80;99.90;;;;;;5032388;28;20390;-70
2023/12/05 12:01:06;;;;;;;153.32;145.45;;;10.90;99.90;;;;;;5017605;28;20037;-69
2023/12/05 12:03:48;;;;;;;151.95;144.15;;;10.90;99.90;;;;;;5027371;28;20041;-70
2023/12/05 12:06:21;;;;;;;103.22;97.70;;;11.00;99.90;;;;;;5023049;28;20018;-69
2023/12/05 12:08:53;;;;;;;169.93;160.52;;;10.90;99.90;;;;;;5015987;28;20021;-70
2023/12/05 12:11:20;;;;;;;187.20;177.73;;;10.80;99.90;;;;;;5031821;28;20387;-70
2023/12/05 12:13:48;;;;;;;180.10;170.73;;;10.90;99.90;;;;;;5030626;28;20104;-69
2023/12/05 12:16:19;;;;;;;110.60;104.47;;;11.10;99.90;;;;;;5028684;28;20512;-69
2023/12/05 12:18:45;;;;;;;93.32;88.38;;;11.30;99.90;;;;;;5031005;28;20030;-70
2023/12/05 12:21:11;;;;;;;192.00;181.73;;;11.20;99.90;;;;;;5013419;28;20029;-70
2023/12/05 12:23:37;;;;;;;109.22;103.55;;;11.30;99.90;;;;;;5028498;28;20041;-70
2023/12/05 12:26:08;;;;;;;115.00;108.63;;;11.30;99.90;;;;;;5013878;28;20041;-70
2023/12/05 12:28:34;;;;;;;89.00;84.03;;;11.40;99.90;;;;;;5029422;28;20398;-69
2023/12/05 12:31:00;;;;;;;1999.90;999.90;;;11.50;99.90;;;;;;5029689;28;20045;-69
2023/12/05 12:33:40;;;;;;;1999.90;999.90;;;11.50;99.90;;;;;;5028399;28;20050;-70
2023/12/05 12:36:11;;;;;;;1999.90;999.90;;;11.50;99.90;;;;;;5029273;28;20072;-70
2023/12/05 12:38:37;;;;;;;1999.90;999.90;;;11.60;99.90;;;;;;5030703;28;20053;-70